createdAt,value
2018-09-11T00:00:42.565Z,3.70
2018-09-11T00:03:10.717Z,3.37
2018-09-11T00:05:38.879Z,3.40
2018-09-11T00:08:06.983Z,3.40
2018-09-11T00:10:35.103Z,2.93
2018-09-11T00:13:03.247Z,3.30
2018-09-11T00:15:31.397Z,3.17
2018-09-11T00:17:59.555Z,3.60
2018-09-11T00:20:27.683Z,3.30
2018-09-11T00:23:13.361Z,3.70
2018-09-11T00:25:47.126Z,3.20
2018-09-11T00:28:15.345Z,3.77
2018-09-11T00:30:46.530Z,3.47
2018-09-11T00:33:14.705Z,3.67
2018-09-11T00:35:42.965Z,3.40
2018-09-11T00:38:11.166Z,3.63
2018-09-11T00:40:39.392Z,3.87
2018-09-11T00:43:07.591Z,3.60
2018-09-11T00:45:35.749Z,3.60
2018-09-11T00:48:03.979Z,4.10
2018-09-11T00:50:32.147Z,4.40
2018-09-11T00:53:00.396Z,4.20
2018-09-11T00:58:16.277Z,4.33
2018-09-11T01:00:44.453Z,3.93
2018-09-11T01:03:12.644Z,4.13
2018-09-11T01:05:40.833Z,4.40
2018-09-11T01:08:09.031Z,4.13
2018-09-11T01:10:37.273Z,4.20
2018-09-11T01:13:05.457Z,4.80
2018-09-11T01:15:33.617Z,4.40
2018-09-11T01:18:01.848Z,4.17
2018-09-11T01:20:30.051Z,3.90
2018-09-11T01:22:58.280Z,3.67
2018-09-11T01:25:26.455Z,3.77
2018-09-11T01:27:55.985Z,4.10
2018-09-11T01:30:26.085Z,3.90
2018-09-11T01:32:54.277Z,4.67
2018-09-11T01:35:22.903Z,4.70
2018-09-11T01:37:54.893Z,3.77
2018-09-11T01:40:26.331Z,4.50
2018-09-11T01:42:54.511Z,5.00
2018-09-11T01:45:27.570Z,4.40
2018-09-11T01:47:55.794Z,4.20
2018-09-11T01:50:28.635Z,4.60
2018-09-11T01:52:59.997Z,4.60
2018-09-11T01:55:28.818Z,4.60
2018-09-11T01:57:59.876Z,3.90
2018-09-11T02:00:30.320Z,3.73
2018-09-11T02:03:02.249Z,3.97
2018-09-11T02:08:05.116Z,4.10
2018-09-11T02:10:33.272Z,3.90
2018-09-11T02:13:01.478Z,3.90
2018-09-11T02:15:29.635Z,4.10
2018-09-11T02:17:57.895Z,3.80
2018-09-11T02:20:26.008Z,4.40
2018-09-11T02:22:54.190Z,4.20
2018-09-11T02:25:22.387Z,3.97
2018-09-11T02:27:51.571Z,4.40
2018-09-11T02:30:19.781Z,3.90
2018-09-11T02:32:53.362Z,4.63
2018-09-11T02:35:36.503Z,5.27
2018-09-11T02:38:07.958Z,4.70
2018-09-11T02:40:38.163Z,4.37
2018-09-11T02:43:08.336Z,5.10
2018-09-11T02:45:36.484Z,5.60
2018-09-11T02:48:04.619Z,5.23
2018-09-11T02:50:32.775Z,5.17
2018-09-11T02:53:00.945Z,4.77
2018-09-11T02:55:29.214Z,5.47
2018-09-11T02:57:57.387Z,5.10
2018-09-11T03:00:25.578Z,5.23
2018-09-11T03:02:53.811Z,4.90
2018-09-11T03:05:21.997Z,5.30
2018-09-11T03:07:50.187Z,5.47
2018-09-11T03:10:18.327Z,5.20
2018-09-11T03:12:46.488Z,4.97
2018-09-11T03:15:14.615Z,5.40
2018-09-11T03:17:42.815Z,4.30
2018-09-11T03:20:10.967Z,4.70
2018-09-11T03:22:39.090Z,4.70
2018-09-11T03:25:07.327Z,5.17
2018-09-11T03:27:35.482Z,5.30
2018-09-11T03:30:03.765Z,4.47
2018-09-11T03:32:31.913Z,5.20
2018-09-11T03:35:00.063Z,6.30
2018-09-11T03:37:28.232Z,5.43
2018-09-11T03:39:56.420Z,4.90
2018-09-11T03:42:24.669Z,4.97
2018-09-11T03:44:52.791Z,5.90
2018-09-11T03:47:20.965Z,5.20
2018-09-11T03:49:49.122Z,6.17
2018-09-11T03:52:17.267Z,5.73
2018-09-11T03:54:45.526Z,5.87
2018-09-11T03:57:13.737Z,6.40
2018-09-11T03:59:41.895Z,6.87
2018-09-11T04:02:10.063Z,6.67
2018-09-11T04:04:38.239Z,6.73
2018-09-11T04:07:06.335Z,6.37
2018-09-11T04:09:34.461Z,5.77
2018-09-11T04:12:02.637Z,6.70
2018-09-11T04:14:30.755Z,6.43
2018-09-11T04:16:58.879Z,6.70
2018-09-11T04:19:27.009Z,6.23
2018-09-11T04:21:55.146Z,6.40
2018-09-11T04:24:23.239Z,6.67
2018-09-11T04:26:51.425Z,6.10
2018-09-11T04:29:19.501Z,6.70
2018-09-11T04:31:47.625Z,6.73
2018-09-11T04:34:15.819Z,7.57
2018-09-11T04:36:43.933Z,7.13
2018-09-11T04:39:12.097Z,6.00
2018-09-11T04:41:40.221Z,7.40
2018-09-11T04:44:08.410Z,7.13
2018-09-11T04:46:36.591Z,7.33
2018-09-11T04:49:04.899Z,7.33
2018-09-11T04:51:33.056Z,7.20
2018-09-11T04:54:01.214Z,6.70
2018-09-11T04:56:30.378Z,7.67
2018-09-11T04:58:58.504Z,6.93
2018-09-11T05:01:27.395Z,7.20
2018-09-11T05:03:56.001Z,7.13
2018-09-11T05:06:24.159Z,6.80
2018-09-11T05:08:52.435Z,7.60
2018-09-11T05:11:20.545Z,6.97
2018-09-11T05:13:48.763Z,7.20
2018-09-11T05:16:16.935Z,6.13
2018-09-11T05:18:45.124Z,6.23
2018-09-11T05:21:13.303Z,5.60
2018-09-11T05:23:41.541Z,5.47
2018-09-11T05:26:09.759Z,5.80
2018-09-11T05:28:37.938Z,5.87
2018-09-11T05:31:06.203Z,4.93
2018-09-11T05:33:35.201Z,5.57
2018-09-11T05:36:03.372Z,6.10
2018-09-11T05:38:34.380Z,6.20
2018-09-11T05:41:07.662Z,4.93
2018-09-11T05:43:35.842Z,6.03
2018-09-11T05:46:04.063Z,6.63
2018-09-11T05:48:32.262Z,6.53
2018-09-11T05:51:00.512Z,6.97
2018-09-11T05:53:28.683Z,6.83
2018-09-11T05:55:56.806Z,6.40
2018-09-11T05:58:25.103Z,6.53
2018-09-11T06:00:53.249Z,6.37
2018-09-11T06:03:21.462Z,6.33
2018-09-11T06:05:49.693Z,5.87
2018-09-11T06:08:17.848Z,5.60
2018-09-11T06:10:46.147Z,5.33
2018-09-11T06:13:14.535Z,5.50
2018-09-11T06:15:43.521Z,4.90
2018-09-11T06:18:11.746Z,5.23
2018-09-11T06:20:39.915Z,4.90
2018-09-11T06:23:08.275Z,4.47
2018-09-11T06:25:36.619Z,5.03
2018-09-11T06:28:04.827Z,5.17
2018-09-11T06:30:33.042Z,4.70
2018-09-11T06:33:01.263Z,4.93
2018-09-11T06:35:29.615Z,4.07
2018-09-11T06:37:57.710Z,4.23
2018-09-11T06:40:25.871Z,4.33
2018-09-11T06:42:54.577Z,4.70
2018-09-11T06:45:22.805Z,4.40
2018-09-11T06:47:51.175Z,4.30
2018-09-11T06:50:19.276Z,4.20
2018-09-11T06:52:47.548Z,4.03
2018-09-11T06:55:16.107Z,4.30
2018-09-11T06:57:44.296Z,3.70
2018-09-11T07:00:12.579Z,4.00
2018-09-11T07:02:41.684Z,4.40
2018-09-11T07:05:10.018Z,3.93
2018-09-11T07:07:38.246Z,4.23
2018-09-11T07:10:07.232Z,4.07
2018-09-11T07:12:35.535Z,3.60
2018-09-11T07:15:03.734Z,3.50
2018-09-11T07:17:32.059Z,3.77
2018-09-11T07:20:00.911Z,4.03
2018-09-11T07:22:29.133Z,4.20
2018-09-11T07:24:57.337Z,4.33
2018-09-11T07:27:25.551Z,4.63
2018-09-11T07:29:53.790Z,4.47
2018-09-11T07:32:21.977Z,4.10
2018-09-11T07:34:54.181Z,4.53
2018-09-11T07:37:24.383Z,4.20
2018-09-11T07:39:52.626Z,3.90
2018-09-11T07:42:20.894Z,4.40
2018-09-11T07:44:49.158Z,4.37
2018-09-11T07:47:17.439Z,3.97
2018-09-11T07:49:45.707Z,3.97
2018-09-11T07:55:30.185Z,4.20
2018-09-11T07:57:58.625Z,4.13
2018-09-11T08:00:26.787Z,4.13
2018-09-11T08:02:59.087Z,4.37
2018-09-11T08:05:30.862Z,4.37
2018-09-11T08:08:00.739Z,4.20
2018-09-11T08:10:30.608Z,4.27
2018-09-11T08:13:02.314Z,3.80
2018-09-11T08:15:30.499Z,4.40
2018-09-11T08:18:02.292Z,4.10
2018-09-11T08:20:31.920Z,3.57
2018-09-11T08:23:03.111Z,4.03
2018-09-11T08:25:31.345Z,4.40
2018-09-11T08:28:03.226Z,5.03
2018-09-11T08:30:34.993Z,4.50
2018-09-11T08:33:03.873Z,3.97
2018-09-11T08:35:35.652Z,4.10
2018-09-11T08:38:05.086Z,4.00
2018-09-11T08:40:35.380Z,4.07
2018-09-11T08:43:07.226Z,4.30
2018-09-11T08:45:36.319Z,4.13
2018-09-11T08:48:05.598Z,3.77
2018-09-11T08:50:33.927Z,3.90
2018-09-11T08:53:08.196Z,3.73
2018-09-11T08:55:36.465Z,3.23
2018-09-11T08:58:08.562Z,3.40
2018-09-11T09:00:36.828Z,3.50
2018-09-11T09:03:05.167Z,4.17
2018-09-11T09:05:39.128Z,4.13
2018-09-11T09:08:07.337Z,3.90
2018-09-11T09:10:41.875Z,3.77
2018-09-11T09:13:10.185Z,3.60
2018-09-11T09:15:41.517Z,3.10
2018-09-11T09:18:11.276Z,3.03
2018-09-11T09:20:43.563Z,3.40
2018-09-11T09:23:11.758Z,3.47
2018-09-11T09:25:40.448Z,3.17
2018-09-11T09:52:26.201Z,3.30
2018-09-11T09:54:54.455Z,3.33
2018-09-11T09:57:22.633Z,3.10
2018-09-11T09:59:50.892Z,2.83
2018-09-11T10:02:22.849Z,3.00
2018-09-11T10:04:51.857Z,2.67
2018-09-11T10:07:20.746Z,2.40
2018-09-11T10:09:49.045Z,2.33
2018-09-11T10:12:17.337Z,2.63
2018-09-11T10:14:45.745Z,2.80
2018-09-11T10:17:37.790Z,2.90
2018-09-11T10:22:51.948Z,2.40
2018-09-11T10:25:23.577Z,2.70
2018-09-11T10:27:52.683Z,2.70
2018-09-11T10:30:20.879Z,2.40
2018-09-11T10:32:54.827Z,2.83
2018-09-11T10:35:24.221Z,2.70
2018-09-11T10:37:54.156Z,2.20
2018-09-11T10:40:25.801Z,2.17
2018-09-11T10:42:54.617Z,2.83
2018-09-11T10:45:24.911Z,2.57
2018-09-11T10:47:57.087Z,2.47
2018-09-11T10:51:55.904Z,2.47
2018-09-11T10:54:24.131Z,2.77
2018-09-11T10:56:56.295Z,2.60
2018-09-11T10:59:27.849Z,3.73
2018-09-11T11:01:56.061Z,2.83
2018-09-11T11:04:30.426Z,2.73
2018-09-11T11:06:58.711Z,3.07
2018-09-11T11:09:29.237Z,2.60
2018-09-11T11:12:01.033Z,2.60
2018-09-11T11:14:29.954Z,2.70
2018-09-11T11:17:00.470Z,3.00
2018-09-11T11:19:28.598Z,2.77
2018-09-11T11:22:03.098Z,3.03
2018-09-11T11:24:32.995Z,2.50
2018-09-11T11:27:02.268Z,2.70
2018-09-11T11:29:32.535Z,3.03
2018-09-11T11:32:00.807Z,3.40
2018-09-11T11:34:34.794Z,3.10
2018-09-11T11:37:03.104Z,3.20
2018-09-11T11:39:31.378Z,3.10
2018-09-11T11:42:04.817Z,3.17
2018-09-11T11:44:34.156Z,3.17
2018-09-11T11:47:05.919Z,3.17
2018-09-11T11:49:34.335Z,2.80
2018-09-11T11:52:02.572Z,2.93
2018-09-11T11:54:35.294Z,3.13
2018-09-11T11:57:03.672Z,3.13
2018-09-11T11:59:31.918Z,3.17
2018-09-11T12:02:00.113Z,3.20
2018-09-11T12:04:39.550Z,3.03
2018-09-11T12:07:08.774Z,3.37
2018-09-11T12:09:37.068Z,3.43
2018-09-11T12:12:05.299Z,3.70
2018-09-11T12:14:36.523Z,3.20
2018-09-11T12:17:09.720Z,3.27
2018-09-11T12:19:38.033Z,3.03
2018-09-11T12:22:11.729Z,3.47
2018-09-11T12:24:39.874Z,3.23
2018-09-11T12:27:11.569Z,2.90
2018-09-11T12:29:43.146Z,3.40
2018-09-11T12:32:12.995Z,3.40
2018-09-11T12:37:59.885Z,3.67
2018-09-11T12:40:42.746Z,3.43
2018-09-11T12:43:14.240Z,3.20
2018-09-11T12:45:45.992Z,3.10
2018-09-11T12:48:15.016Z,3.13
2018-09-11T12:50:46.211Z,3.00
2018-09-11T12:53:15.912Z,3.00
2018-09-11T12:55:47.491Z,3.00
2018-09-11T12:58:17.194Z,3.60
2018-09-11T13:00:47.024Z,3.30
2018-09-11T13:03:18.920Z,3.37
2018-09-11T13:05:47.580Z,3.40
2018-09-11T13:08:19.292Z,3.30
2018-09-11T13:10:48.307Z,3.50
2018-09-11T13:13:20.341Z,3.23
2018-09-11T13:15:49.199Z,3.43
2018-09-11T13:18:21.030Z,3.50
2018-09-11T13:20:50.747Z,3.70
2018-09-11T13:23:20.197Z,3.50
2018-09-11T13:25:51.319Z,3.47
2018-09-11T13:28:21.457Z,3.57
2018-09-11T13:30:53.328Z,3.30
2018-09-11T13:33:21.824Z,3.27
2018-09-11T13:35:53.285Z,3.07
2018-09-11T13:38:24.259Z,2.90
2018-09-11T13:40:53.494Z,3.43
2018-09-11T13:43:23.555Z,3.23
2018-09-11T13:45:51.831Z,3.83
2018-09-11T13:48:26.274Z,3.40
2018-09-11T13:50:55.510Z,3.17
2018-09-11T13:53:23.910Z,3.73
2018-09-11T13:55:55.685Z,3.87
2018-09-11T13:58:27.332Z,3.00
2018-09-11T14:00:56.418Z,4.40
2018-09-11T14:03:25.952Z,3.97
2018-09-11T14:05:55.224Z,3.67
2018-09-11T14:08:28.729Z,3.47
2018-09-11T14:10:58.632Z,3.47
2018-09-11T14:13:28.156Z,3.77
2018-09-11T14:15:59.894Z,4.70
2018-09-11T14:18:29.338Z,4.70
2018-09-11T14:21:01.061Z,3.53
2018-09-11T14:23:30.244Z,3.10
2018-09-11T14:26:00.063Z,3.30
2018-09-11T14:28:31.831Z,3.30
2018-09-11T14:31:01.517Z,3.60
2018-09-11T14:33:32.991Z,3.50
2018-09-11T14:36:01.222Z,3.57
2018-09-11T14:38:32.584Z,3.60
2018-09-11T14:41:01.927Z,3.53
2018-09-11T14:43:33.281Z,3.00
2018-09-11T14:46:04.731Z,3.43
2018-09-11T14:48:34.033Z,3.67
2018-09-11T14:51:05.914Z,3.20
2018-09-11T14:53:35.328Z,3.50
2018-09-11T14:56:06.801Z,2.80
2018-09-11T14:58:35.957Z,3.50
2018-09-11T15:01:04.197Z,3.20
2018-09-11T15:03:32.661Z,3.30
2018-09-11T15:06:00.974Z,3.43
2018-09-11T15:08:29.384Z,3.07
2018-09-11T15:10:58.803Z,3.33
2018-09-11T15:13:27.497Z,3.47
2018-09-11T15:15:55.724Z,3.60
2018-09-11T15:18:24.561Z,2.70
2018-09-11T15:20:54.210Z,3.00
2018-09-11T15:23:22.571Z,3.23
2018-09-11T15:25:51.354Z,3.00
2018-09-11T15:28:19.632Z,3.07
2018-09-11T15:30:47.907Z,3.10
2018-09-11T15:33:16.283Z,2.97
2018-09-11T15:35:44.502Z,3.10
2018-09-11T15:38:14.532Z,3.10
2018-09-11T15:40:42.744Z,3.23
2018-09-11T15:43:10.956Z,3.30
2018-09-11T15:45:39.175Z,3.27
2018-09-11T15:48:07.409Z,3.17
2018-09-11T15:50:35.750Z,3.20
2018-09-11T15:53:03.881Z,3.23
2018-09-11T15:55:32.024Z,3.53
2018-09-11T15:58:00.151Z,3.10
2018-09-11T16:00:28.393Z,3.03
2018-09-11T16:02:56.583Z,2.97
2018-09-11T16:05:24.805Z,3.20
2018-09-11T16:07:53.105Z,2.90
2018-09-11T16:10:21.477Z,3.40
2018-09-11T16:12:49.705Z,2.80
2018-09-11T16:15:17.990Z,2.70
2018-09-11T16:17:46.351Z,2.60
2018-09-11T16:20:14.583Z,2.73
2018-09-11T16:22:42.815Z,2.83
2018-09-11T16:25:11.142Z,3.00
2018-09-11T16:27:39.476Z,2.37
2018-09-11T16:30:08.170Z,3.50
2018-09-11T16:32:36.326Z,2.60
2018-09-11T16:35:04.518Z,3.03
2018-09-11T16:37:32.703Z,2.60
2018-09-11T16:40:00.977Z,2.40
2018-09-11T16:42:29.339Z,2.67
2018-09-11T16:44:57.505Z,2.70
2018-09-11T16:47:25.689Z,2.60
2018-09-11T16:49:54.393Z,2.70
2018-09-11T16:52:22.565Z,2.70
2018-09-11T16:54:50.790Z,2.87
2018-09-11T16:57:19.221Z,2.90
2018-09-11T16:59:47.465Z,2.50
2018-09-11T17:02:15.737Z,2.50
2018-09-11T17:04:43.988Z,2.33
2018-09-11T17:07:12.302Z,2.67
2018-09-11T17:09:40.576Z,2.80
2018-09-11T17:12:08.795Z,2.83
2018-09-11T17:14:48.298Z,2.83
2018-09-11T17:17:16.579Z,3.00
2018-09-11T17:19:44.811Z,2.97
2018-09-11T17:22:16.568Z,2.90
2018-09-11T17:24:59.669Z,2.40
2018-09-11T17:27:30.046Z,3.00
2018-09-11T17:30:00.109Z,2.83
2018-09-11T17:32:28.323Z,2.70
2018-09-11T17:35:02.534Z,3.30
2018-09-11T17:37:30.709Z,2.67
2018-09-11T17:40:02.775Z,2.90
2018-09-11T17:42:31.749Z,2.70
2018-09-11T17:45:03.028Z,2.70
2018-09-11T17:47:33.375Z,2.70
2018-09-11T17:50:01.661Z,3.23
2018-09-11T17:52:32.288Z,2.77
2018-09-11T17:55:02.623Z,2.93
2018-09-11T17:57:34.591Z,2.83
2018-09-11T18:00:05.364Z,2.93
2018-09-11T18:02:35.116Z,3.30
2018-09-11T18:05:03.887Z,3.20
2018-09-11T18:07:35.620Z,3.27
2018-09-11T18:10:04.027Z,3.00
2018-09-11T18:12:33.484Z,2.90
2018-09-11T18:15:01.758Z,3.47
2018-09-11T18:17:30.231Z,3.10
2018-09-11T18:19:58.533Z,2.93
2018-09-11T18:25:08.793Z,2.90
2018-09-11T18:27:37.031Z,3.53
2018-09-11T18:30:09.014Z,2.87
2018-09-11T18:32:37.551Z,2.80
2018-09-11T18:35:09.835Z,3.57
2018-09-11T18:37:38.055Z,2.93
2018-09-11T18:40:06.519Z,2.73
2018-09-11T18:42:41.341Z,3.33
2018-09-11T18:45:11.158Z,3.10
2018-09-11T18:47:40.838Z,2.90
2018-09-11T18:50:09.061Z,3.27
2018-09-11T18:52:37.324Z,3.13
2018-09-11T18:55:05.653Z,3.57
2018-09-11T18:57:34.176Z,3.87
2018-09-11T19:00:02.816Z,3.20
2018-09-11T19:05:22.433Z,3.17
2018-09-11T19:07:50.737Z,3.47
2018-09-11T19:10:19.128Z,3.37
2018-09-11T19:12:47.420Z,3.67
2018-09-11T19:15:15.868Z,3.23
2018-09-11T19:17:44.009Z,3.33
2018-09-11T19:20:12.366Z,3.40
2018-09-11T19:22:40.702Z,3.70
2018-09-11T19:25:09.090Z,3.33
2018-09-11T19:27:37.331Z,3.77
2018-09-11T19:30:06.801Z,3.93
2018-09-11T19:32:35.342Z,3.63
2018-09-11T19:35:03.707Z,3.67
2018-09-11T19:37:43.728Z,3.87
2018-09-11T19:40:18.658Z,4.10
2018-09-11T19:42:47.875Z,3.60
2018-09-11T19:45:16.138Z,3.80
2018-09-11T19:47:51.611Z,3.10
2018-09-11T19:50:22.924Z,3.43
2018-09-11T19:52:51.133Z,3.67
2018-09-11T19:55:24.723Z,3.07
2018-09-11T19:57:53.203Z,3.23
2018-09-11T20:00:21.455Z,3.40
2018-09-11T20:02:49.666Z,3.40
2018-09-11T20:05:17.949Z,3.13
2018-09-11T20:07:46.393Z,3.53
2018-09-11T20:10:29.245Z,3.67
2018-09-11T20:12:57.729Z,3.63
2018-09-11T20:15:26.007Z,3.60
2018-09-11T20:17:54.272Z,3.43
2018-09-11T20:20:22.626Z,3.03
2018-09-11T20:22:51.101Z,3.70
2018-09-11T20:25:19.437Z,3.90
2018-09-11T20:27:47.751Z,3.63
2018-09-11T20:30:16.215Z,3.83
2018-09-11T20:32:44.456Z,3.70
2018-09-11T20:35:19.693Z,3.70
2018-09-11T20:37:48.081Z,3.33
2018-09-11T20:40:16.332Z,3.90
2018-09-11T20:42:44.501Z,3.73
2018-09-11T20:45:12.898Z,3.80
2018-09-11T20:47:41.213Z,3.93
2018-09-11T20:50:09.503Z,3.83
2018-09-11T20:52:37.747Z,3.80
2018-09-11T20:55:06.490Z,3.83
2018-09-11T20:57:35.375Z,3.87
2018-09-11T21:00:03.745Z,3.30
2018-09-11T21:02:32.843Z,3.17
2018-09-11T21:05:01.273Z,3.60
2018-09-11T21:07:34.493Z,3.63
2018-09-11T21:10:05.953Z,3.23
2018-09-11T21:12:34.259Z,4.00
2018-09-11T21:15:02.551Z,3.10
2018-09-11T21:17:36.870Z,3.60
2018-09-11T21:20:06.299Z,3.70
2018-09-11T21:22:34.587Z,3.53
2018-09-11T21:25:02.946Z,3.50
2018-09-11T21:27:31.207Z,3.77
2018-09-11T21:29:59.490Z,3.80
2018-09-11T21:32:27.726Z,3.60
2018-09-11T21:34:55.971Z,3.27
2018-09-11T21:37:24.167Z,3.77
2018-09-11T21:39:53.113Z,3.40
2018-09-11T21:44:55.872Z,3.63
2018-09-11T21:47:24.156Z,3.20
2018-09-11T21:52:44.846Z,4.00
2018-09-11T21:55:13.083Z,3.53
2018-09-11T21:57:41.569Z,3.67
2018-09-11T22:00:11.004Z,3.60
2018-09-11T22:02:39.319Z,3.20
2018-09-11T22:05:08.086Z,3.90
2018-09-11T22:07:36.343Z,3.83
2018-09-11T22:10:05.745Z,3.20
2018-09-11T22:12:35.476Z,3.87
2018-09-11T22:15:04.140Z,3.63
2018-09-11T22:17:32.433Z,3.77
2018-09-11T22:20:00.844Z,3.40
2018-09-11T22:22:29.276Z,4.03
2018-09-11T22:24:57.751Z,4.30
2018-09-11T22:27:26.008Z,4.07
2018-09-11T22:29:54.464Z,3.90
2018-09-11T22:32:22.704Z,3.77
2018-09-11T22:34:50.917Z,4.07
2018-09-11T22:37:19.319Z,5.60
2018-09-11T22:39:47.678Z,4.90
2018-09-11T22:42:15.920Z,4.43
2018-09-11T22:44:44.194Z,3.80
2018-09-11T22:47:12.556Z,4.40
2018-09-11T22:49:40.744Z,4.73
2018-09-11T22:52:09.018Z,3.87
2018-09-11T22:54:37.304Z,4.20
2018-09-11T22:57:05.536Z,4.13
2018-09-11T22:59:33.824Z,4.00
2018-09-11T23:02:02.166Z,4.17
2018-09-11T23:04:30.506Z,4.13
2018-09-11T23:06:58.784Z,4.47
2018-09-11T23:09:27.127Z,4.60
2018-09-11T23:11:56.253Z,4.47
2018-09-11T23:14:24.494Z,5.30
2018-09-11T23:16:56.416Z,4.27
2018-09-11T23:19:24.755Z,4.10
2018-09-11T23:21:53.122Z,4.30
2018-09-11T23:24:22.060Z,4.10
2018-09-11T23:26:50.470Z,4.23
2018-09-11T23:29:27.596Z,4.10
2018-09-11T23:31:57.706Z,4.53
2018-09-11T23:34:25.896Z,4.70
2018-09-11T23:36:58.165Z,4.47
2018-09-11T23:42:14.151Z,3.90
2018-09-11T23:44:42.435Z,3.87
2018-09-11T23:47:26.698Z,3.83
2018-09-11T23:50:00.332Z,4.30
2018-09-11T23:52:31.786Z,4.27
2018-09-11T23:55:00.194Z,4.50
2018-09-11T23:57:28.412Z,4.17
